Thursday, July 19, 2018, 1:51 AM EDT
Back to Local

KCXY, Harrisburg Capital City

Location: New Cumberland, PA, United States Lat: 40.217
Local Time: 1:51 AM EDT ( 5:51 GMT) Lon: -76.85
Time Zone: US/Eastern Elev: 347 ft

Show me the last for .
Show Decoded

2018-07-19 00:56 METAR KCXY 190456Z AUTO 00000KT 10SM CLR 19/16 A3004 RMK AO2 SLP171 T01940156
                 403060189 =
2018-07-18 23:56 METAR KCXY 190356Z AUTO 25003KT 10SM CLR 21/15 A3001 RMK AO2 SLP162 T02060150 =
2018-07-18 22:56 METAR KCXY 190256Z AUTO 23004KT 10SM CLR 21/15 A3000 RMK AO2 SLP158 T02060150
                 51014 =
2018-07-18 21:56 METAR KCXY 190156Z AUTO 23003KT 10SM SCT070 22/16 A2999 RMK AO2 SLP155 T02170156
                 =
2018-07-18 20:56 METAR KCXY 190056Z 22003KT 10SM FEW070 24/14 A2997 RMK AO2 SLP147 T02390144 =
2018-07-18 19:56 METAR KCXY 182356Z 36004KT 10SM CLR 28/12 A2996 RMK AO2 SLP143 T02830122 10306
                 20283 53003 =
2018-07-18 18:56 METAR KCXY 182256Z 34006KT 10SM SCT065 29/12 A2996 RMK AO2 SLP142 T02940122 =
2018-07-18 17:56 METAR KCXY 182156Z 31007KT 10SM FEW065 29/12 A2995 RMK AO2 SLP140 T02940117 =
2018-07-18 16:56 METAR KCXY 182056Z 31006KT 10SM SCT070 30/12 A2995 RMK AO2 SLP140 T03000117
                 58007 =
2018-07-18 15:56 METAR KCXY 181956Z COR 36007KT 10SM SCT075 30/12 A2996 RMK AO2 SLP143 T03000117
                 =
2018-07-18 14:56 METAR KCXY 181856Z 34009KT 10SM SCT075 30/12 A2997 RMK AO2 SLP147 T03000122 =
2018-07-18 13:56 METAR KCXY 181756Z 34007KT 300V360 10SM FEW049 SCT060 29/14 A2997 RMK AO2 SLP147
                 T02940139 10294 20233 58004 =
2018-07-18 12:56 METAR KCXY 181656Z 33009KT 10SM BKN046 BKN055 27/14 A2998 RMK AO2 SLP149
                 T02670144 =
2018-07-18 11:56 METAR KCXY 181556Z 30010KT 10SM FEW050 26/15 A2998 RMK AO2 SLP151 T02610150 =
2018-07-18 10:56 METAR KCXY 181456Z 32008KT 10SM CLR 26/15 A2998 RMK AO2 SLP152 T02610150 51007 =
2018-07-18 09:56 METAR KCXY 181356Z 33008KT 10SM CLR 24/14 A2998 RMK AO2 SLP150 T02440144 =
2018-07-18 08:56 METAR KCXY 181256Z 35006KT 10SM CLR 24/14 A2998 RMK AO2 SLP150 T02390139 =
2018-07-18 07:56 METAR KCXY 181156Z 33006KT 10SM CLR 23/13 A2996 RMK AO2 SLP145 70063 T02330133
                 10233 20189 53016 =
2018-07-18 06:56 METAR KCXY 181056Z 35007KT 320V020 10SM CLR 23/13 A2995 RMK AO2 SLP139 T02280133
                 =
2018-07-18 05:56 METAR KCXY 180956Z AUTO 25005KT 10SM CLR 19/15 A2993 RMK AO2 SLP133 T01940150 =
2018-07-18 04:56 METAR KCXY 180856Z AUTO 24004KT 10SM FEW075 19/15 A2992 RMK AO2 SLP130 T01940150
                 53007 =
2018-07-18 03:56 METAR KCXY 180756Z AUTO 25005KT 10SM CLR 20/16 A2991 RMK AO2 SLP126 T02000161 =
2018-07-18 02:56 METAR KCXY 180656Z AUTO 27004KT 10SM CLR 21/16 A2990 RMK AO2 SLP123 T02110161 =
2018-07-18 01:56 METAR KCXY 180556Z AUTO 25005KT 10SM OVC070 23/18 A2989 RMK AO2 SLP122 T02280183
                 10278 20222 53006 =

Support USWX by starting your Amazon purchase here.